createdAt,value
2023-03-05T00:00:54.031Z,22.55
2023-03-05T00:01:56.304Z,21.02
2023-03-05T00:02:58.651Z,22.02
2023-03-05T00:04:02.171Z,22.05
2023-03-05T00:05:04.934Z,20.40
2023-03-05T00:06:08.244Z,21.00
2023-03-05T00:07:12.319Z,21.27
2023-03-05T00:08:14.595Z,20.10
2023-03-05T00:09:17.082Z,20.92
2023-03-05T00:10:19.728Z,20.40
2023-03-05T00:11:22.610Z,22.05
2023-03-05T00:12:24.851Z,20.88
2023-03-05T00:13:27.188Z,21.65
2023-03-05T00:14:29.343Z,21.50
2023-03-05T00:15:31.661Z,19.83
2023-03-05T00:16:34.151Z,20.95
2023-03-05T00:17:36.417Z,19.75
2023-03-05T00:18:39.197Z,21.63
2023-03-05T00:19:41.391Z,21.10
2023-03-05T00:20:43.616Z,21.00
2023-03-05T00:21:46.236Z,21.17
2023-03-05T00:22:48.444Z,21.85
2023-03-05T00:23:52.278Z,20.10
2023-03-05T00:24:54.521Z,21.08
2023-03-05T00:25:56.733Z,19.83
2023-03-05T00:26:59.166Z,21.13
2023-03-05T00:28:01.419Z,20.77
2023-03-05T00:29:03.952Z,20.80
2023-03-05T00:30:06.978Z,20.88
2023-03-05T00:31:09.395Z,22.23
2023-03-05T00:32:11.691Z,20.75
2023-03-05T00:33:14.131Z,20.50
2023-03-05T00:34:18.866Z,21.60
2023-03-05T00:35:21.092Z,20.58
2023-03-05T00:36:25.073Z,21.38
2023-03-05T00:37:27.286Z,20.58
2023-03-05T00:38:30.339Z,21.23
2023-03-05T00:39:32.601Z,21.05
2023-03-05T00:40:40.194Z,21.25
2023-03-05T00:41:42.479Z,20.15
2023-03-05T00:42:44.834Z,19.80
2023-03-05T00:43:47.803Z,20.52
2023-03-05T00:44:50.005Z,20.80
2023-03-05T00:45:52.166Z,20.42
2023-03-05T00:46:54.486Z,20.85
2023-03-05T00:47:56.899Z,20.67
2023-03-05T00:48:59.161Z,20.30
2023-03-05T00:50:01.894Z,19.98
2023-03-05T00:51:04.337Z,20.45
2023-03-05T00:52:06.569Z,20.95
2023-03-05T00:53:08.754Z,20.00
2023-03-05T00:54:11.017Z,20.00
2023-03-05T00:55:13.218Z,20.33
2023-03-05T00:56:15.814Z,20.25
2023-03-05T00:57:18.261Z,19.55
2023-03-05T00:58:20.469Z,20.02
2023-03-05T00:59:22.696Z,20.30
2023-03-05T01:00:25.027Z,20.60
2023-03-05T01:01:28.517Z,19.83
2023-03-05T01:02:33.808Z,20.20
2023-03-05T01:03:37.102Z,19.60
2023-03-05T01:04:39.411Z,19.20
2023-03-05T01:05:41.806Z,19.65
2023-03-05T01:06:46.164Z,20.40
2023-03-05T01:07:52.932Z,19.75
2023-03-05T01:08:56.503Z,19.13
2023-03-05T01:09:59.231Z,20.48
2023-03-05T01:11:02.248Z,18.08
2023-03-05T01:12:04.817Z,19.73
2023-03-05T01:13:07.074Z,20.70
2023-03-05T01:14:09.361Z,19.88
2023-03-05T01:15:11.703Z,19.42
2023-03-05T01:16:14.208Z,18.02
2023-03-05T01:17:16.527Z,19.92
2023-03-05T01:18:20.119Z,19.13
2023-03-05T01:19:22.312Z,19.63
2023-03-05T01:20:24.564Z,20.83
2023-03-05T01:21:26.848Z,20.13
2023-03-05T01:22:29.914Z,19.52
2023-03-05T01:23:34.388Z,20.45
2023-03-05T01:24:36.609Z,19.02
2023-03-05T01:25:38.997Z,20.73
2023-03-05T01:26:41.209Z,19.63
2023-03-05T01:27:43.818Z,18.77
2023-03-05T01:28:45.998Z,18.92
2023-03-05T01:29:48.496Z,18.67
2023-03-05T01:30:50.921Z,18.23
2023-03-05T01:31:53.169Z,19.30
2023-03-05T01:32:56.491Z,18.27
2023-03-05T01:34:00.153Z,18.67
2023-03-05T01:35:05.832Z,19.42
2023-03-05T01:36:15.526Z,19.63
2023-03-05T01:37:17.792Z,19.38
2023-03-05T01:38:20.053Z,20.20
2023-03-05T01:39:22.607Z,18.92
2023-03-05T01:40:27.929Z,19.00
2023-03-05T01:41:30.210Z,18.55
2023-03-05T01:42:32.439Z,17.92
2023-03-05T01:43:34.817Z,18.70
2023-03-05T01:44:37.273Z,19.40
2023-03-05T01:46:13.148Z,18.40
2023-03-05T01:47:15.446Z,18.17
2023-03-05T01:48:17.723Z,18.75
2023-03-05T01:49:28.157Z,18.27
2023-03-05T01:50:30.648Z,18.27
2023-03-05T01:51:56.573Z,19.13
2023-03-05T01:53:02.548Z,16.85
2023-03-05T01:54:07.385Z,18.80
2023-03-05T01:55:14.881Z,17.80
2023-03-05T01:56:17.835Z,18.13
2023-03-05T01:57:23.290Z,18.05
2023-03-05T01:58:26.007Z,17.33
2023-03-05T01:59:28.675Z,17.73
2023-03-05T02:02:08.469Z,17.58
2023-03-05T02:03:13.086Z,18.35
2023-03-05T02:04:18.797Z,17.15
2023-03-05T02:05:31.064Z,17.10
2023-03-05T02:06:33.762Z,17.50
2023-03-05T02:07:37.967Z,18.05
2023-03-05T02:08:40.510Z,17.65
2023-03-05T02:09:42.808Z,18.02
2023-03-05T02:10:48.071Z,18.45
2023-03-05T02:11:51.584Z,18.63
2023-03-05T02:13:00.196Z,19.23
2023-03-05T02:14:04.584Z,16.70
2023-03-05T02:15:08.134Z,18.58
2023-03-05T02:16:12.868Z,16.58
2023-03-05T02:17:15.874Z,18.17
2023-03-05T02:18:19.780Z,19.00
2023-03-05T02:19:22.078Z,17.42
2023-03-05T02:20:27.701Z,17.88
2023-03-05T02:21:38.956Z,18.63
2023-03-05T02:22:41.237Z,17.77
2023-03-05T02:23:43.578Z,16.92
2023-03-05T02:24:46.247Z,17.27
2023-03-05T02:25:54.775Z,17.25
2023-03-05T02:26:57.687Z,18.17
2023-03-05T02:28:22.374Z,18.42
2023-03-05T02:29:24.667Z,18.73
2023-03-05T02:30:27.464Z,17.60
2023-03-05T02:31:31.073Z,18.60
2023-03-05T02:32:33.404Z,18.27
2023-03-05T02:33:35.960Z,17.27
2023-03-05T02:34:38.274Z,19.25
2023-03-05T02:35:40.825Z,18.23
2023-03-05T02:36:43.566Z,18.83
2023-03-05T02:37:46.897Z,18.48
2023-03-05T02:38:49.388Z,18.70
2023-03-05T02:39:51.720Z,17.95
2023-03-05T02:40:54.120Z,18.95
2023-03-05T02:41:56.480Z,17.65
2023-03-05T02:42:59.009Z,17.92
2023-03-05T02:44:02.146Z,19.08
2023-03-05T02:45:05.047Z,18.02
2023-03-05T02:46:07.930Z,18.92
2023-03-05T02:47:10.298Z,17.30
2023-03-05T02:48:12.902Z,17.80
2023-03-05T02:49:15.148Z,18.10
2023-03-05T02:50:17.837Z,18.85
2023-03-05T02:51:20.123Z,18.02
2023-03-05T02:52:23.580Z,18.25
2023-03-05T02:53:26.851Z,17.48
2023-03-05T02:54:29.157Z,17.05
2023-03-05T02:55:31.306Z,17.58
2023-03-05T02:56:35.309Z,18.27
2023-03-05T02:57:37.626Z,16.60
2023-03-05T02:58:39.943Z,18.52
2023-03-05T02:59:42.411Z,19.08
2023-03-05T03:00:46.612Z,18.08
2023-03-05T03:01:48.818Z,18.45
2023-03-05T03:02:51.132Z,17.15
2023-03-05T03:03:53.593Z,17.65
2023-03-05T03:04:56.488Z,17.20
2023-03-05T03:05:58.864Z,16.98
2023-03-05T03:07:01.181Z,17.73
2023-03-05T03:08:03.860Z,17.17
2023-03-05T03:09:06.104Z,18.08
2023-03-05T03:10:09.337Z,17.75
2023-03-05T03:11:13.179Z,17.80
2023-03-05T03:12:15.552Z,17.73
2023-03-05T03:13:18.089Z,18.10
2023-03-05T03:14:20.734Z,18.42
2023-03-05T03:15:23.082Z,17.70
2023-03-05T03:16:25.363Z,18.00
2023-03-05T03:17:27.787Z,17.08
2023-03-05T03:18:30.073Z,18.08
2023-03-05T03:19:32.756Z,19.15
2023-03-05T03:20:39.007Z,17.15
2023-03-05T03:21:41.269Z,17.95
2023-03-05T03:22:45.070Z,18.25
2023-03-05T03:23:47.374Z,17.63
2023-03-05T03:24:49.553Z,18.05
2023-03-05T03:25:52.162Z,17.83
2023-03-05T03:26:54.391Z,17.67
2023-03-05T03:27:56.822Z,17.48
2023-03-05T03:28:59.129Z,18.38
2023-03-05T03:30:04.669Z,17.88
2023-03-05T03:31:07.140Z,18.00
2023-03-05T03:32:09.451Z,18.40
2023-03-05T03:33:11.978Z,16.63
2023-03-05T03:34:15.794Z,18.85
2023-03-05T03:35:18.340Z,16.77
2023-03-05T03:36:20.731Z,17.77
2023-03-05T03:37:23.063Z,18.30
2023-03-05T03:38:25.265Z,17.58
2023-03-05T03:39:27.724Z,17.30
2023-03-05T03:40:30.397Z,18.00
2023-03-05T03:41:33.409Z,18.20
2023-03-05T03:42:35.899Z,17.45
2023-03-05T03:43:38.265Z,17.67
2023-03-05T03:44:40.437Z,17.48
2023-03-05T03:45:44.967Z,18.40
2023-03-05T03:46:49.146Z,19.13
2023-03-05T03:47:51.694Z,18.92
2023-03-05T03:48:53.984Z,18.70
2023-03-05T03:49:56.718Z,18.95
2023-03-05T03:50:58.992Z,18.20
2023-03-05T03:52:01.309Z,17.98
2023-03-05T03:53:03.524Z,18.95
2023-03-05T03:54:05.822Z,18.98
2023-03-05T03:55:08.368Z,18.42
2023-03-05T03:56:10.682Z,17.80
2023-03-05T03:57:12.825Z,17.92
2023-03-05T03:58:15.080Z,17.58
2023-03-05T03:59:17.268Z,17.63
2023-03-05T04:00:19.631Z,18.25
2023-03-05T04:01:21.922Z,17.88
2023-03-05T04:02:24.243Z,16.67
2023-03-05T04:03:26.677Z,17.63
2023-03-05T04:04:30.173Z,17.08
2023-03-05T04:05:32.677Z,16.83
2023-03-05T04:06:35.079Z,17.50
2023-03-05T04:07:37.528Z,17.90
2023-03-05T04:08:39.816Z,18.15
2023-03-05T04:09:42.106Z,18.45
2023-03-05T04:10:44.567Z,19.42
2023-03-05T04:11:47.132Z,18.73
2023-03-05T04:12:49.397Z,18.45
2023-03-05T04:13:52.002Z,19.30
2023-03-05T04:14:54.744Z,18.23
2023-03-05T04:15:57.396Z,17.65
2023-03-05T04:16:59.925Z,18.63
2023-03-05T04:18:02.367Z,19.17
2023-03-05T04:19:04.567Z,19.25
2023-03-05T04:20:10.302Z,18.40
2023-03-05T04:21:12.750Z,18.25
2023-03-05T04:22:17.192Z,19.00
2023-03-05T04:23:20.100Z,19.52
2023-03-05T04:24:22.325Z,20.30
2023-03-05T04:25:24.498Z,18.13
2023-03-05T04:26:26.795Z,18.60
2023-03-05T04:27:28.965Z,19.95
2023-03-05T04:28:31.604Z,19.48
2023-03-05T04:29:34.630Z,18.75
2023-03-05T04:30:37.064Z,18.63
2023-03-05T04:31:39.237Z,17.70
2023-03-05T04:32:41.749Z,18.67
2023-03-05T04:33:44.133Z,18.48
2023-03-05T04:34:46.634Z,17.65
2023-03-05T04:35:48.852Z,17.10
2023-03-05T04:36:51.104Z,19.98
2023-03-05T04:37:53.363Z,18.25
2023-03-05T04:38:55.593Z,19.80
2023-03-05T04:39:57.842Z,19.17
2023-03-05T04:41:00.097Z,19.27
2023-03-05T04:42:02.426Z,18.08
2023-03-05T04:43:05.311Z,18.15
2023-03-05T04:44:07.563Z,18.43
2023-03-05T04:45:10.730Z,18.33
2023-03-05T04:46:13.087Z,18.20
2023-03-05T04:47:16.637Z,20.17
2023-03-05T04:48:18.876Z,18.40
2023-03-05T04:49:21.112Z,18.40
2023-03-05T04:50:23.831Z,19.52
2023-03-05T04:51:26.138Z,18.85
2023-03-05T04:52:28.281Z,20.27
2023-03-05T04:53:30.445Z,19.13
2023-03-05T04:54:33.041Z,18.92
2023-03-05T04:55:35.188Z,19.05
2023-03-05T04:56:37.742Z,18.25
2023-03-05T04:57:40.162Z,20.33
2023-03-05T04:58:42.293Z,19.30
2023-03-05T04:59:44.664Z,19.10
2023-03-05T05:00:46.846Z,18.67
2023-03-05T05:01:49.097Z,18.85
2023-03-05T05:02:52.520Z,19.88
2023-03-05T05:03:54.795Z,18.63
2023-03-05T05:04:56.997Z,16.77
2023-03-05T05:06:01.000Z,18.45
2023-03-05T05:07:03.526Z,19.98
2023-03-05T05:08:05.691Z,18.17
2023-03-05T05:09:08.185Z,17.45
2023-03-05T05:10:11.667Z,19.20
2023-03-05T05:11:14.642Z,19.50
2023-03-05T05:12:17.304Z,18.30
2023-03-05T05:13:19.613Z,18.85
2023-03-05T05:14:22.251Z,18.33
2023-03-05T05:15:24.583Z,19.17
2023-03-05T05:16:26.987Z,19.00
2023-03-05T05:17:32.846Z,18.95
2023-03-05T05:18:35.274Z,18.92
2023-03-05T05:19:37.575Z,18.35
2023-03-05T05:20:39.782Z,18.92
2023-03-05T05:21:42.456Z,19.25
2023-03-05T05:22:44.814Z,19.00
2023-03-05T05:23:47.211Z,19.40
2023-03-05T05:24:49.418Z,18.23
2023-03-05T05:25:58.988Z,19.27
2023-03-05T05:27:01.187Z,21.20
2023-03-05T05:28:04.167Z,19.00
2023-03-05T05:29:06.330Z,19.52
2023-03-05T05:30:09.007Z,19.52
2023-03-05T05:31:13.886Z,19.85
2023-03-05T05:32:17.557Z,18.85
2023-03-05T05:33:20.532Z,19.38
2023-03-05T05:34:25.038Z,18.83
2023-03-05T05:35:27.420Z,18.60
2023-03-05T05:36:29.674Z,18.85
2023-03-05T05:37:31.885Z,19.00
2023-03-05T05:38:35.084Z,20.05
2023-03-05T05:39:37.554Z,18.83
2023-03-05T05:40:40.602Z,19.90
2023-03-05T05:41:42.785Z,18.90
2023-03-05T05:42:45.290Z,19.08
2023-03-05T05:43:47.816Z,19.23
2023-03-05T05:44:50.506Z,20.02
2023-03-05T05:45:52.825Z,19.63
2023-03-05T05:46:55.197Z,19.05
2023-03-05T05:47:57.880Z,20.05
2023-03-05T05:49:00.136Z,19.48
2023-03-05T05:50:02.617Z,20.05
2023-03-05T05:51:10.359Z,21.48
2023-03-05T05:52:13.416Z,19.98
2023-03-05T05:53:15.741Z,19.05
2023-03-05T05:54:18.102Z,19.73
2023-03-05T05:55:20.335Z,19.42
2023-03-05T05:56:22.758Z,21.05
2023-03-05T05:57:25.082Z,19.35
2023-03-05T05:58:27.271Z,18.98
2023-03-05T05:59:29.661Z,20.13
2023-03-05T06:00:31.946Z,19.23
2023-03-05T06:01:34.903Z,18.58
2023-03-05T06:02:41.378Z,18.02
2023-03-05T06:03:43.845Z,19.55
2023-03-05T06:04:46.163Z,19.90
2023-03-05T06:05:48.478Z,20.17
2023-03-05T06:06:50.839Z,19.48
2023-03-05T06:07:53.012Z,19.27
2023-03-05T06:08:56.909Z,19.88
2023-03-05T06:09:59.247Z,19.95
2023-03-05T06:11:01.571Z,19.00
2023-03-05T06:12:04.262Z,18.35
2023-03-05T06:13:06.520Z,19.30
2023-03-05T06:14:11.379Z,19.45
2023-03-05T06:15:13.589Z,18.60
2023-03-05T06:16:24.007Z,19.75
2023-03-05T06:17:30.718Z,21.05
2023-03-05T06:18:34.553Z,20.23
2023-03-05T06:19:36.817Z,21.05
2023-03-05T06:20:39.102Z,20.25
2023-03-05T06:21:43.142Z,19.70
2023-03-05T06:22:45.545Z,20.33
2023-03-05T06:23:48.408Z,20.83
2023-03-05T06:24:50.627Z,20.00
2023-03-05T06:25:53.220Z,19.50
2023-03-05T06:26:55.718Z,19.73
2023-03-05T06:27:57.939Z,21.42
2023-03-05T06:29:00.183Z,21.67
2023-03-05T06:30:03.053Z,21.38
2023-03-05T06:31:07.796Z,18.67
2023-03-05T06:32:10.401Z,19.95
2023-03-05T06:33:12.699Z,21.85
2023-03-05T06:34:14.915Z,20.33
2023-03-05T06:35:17.470Z,19.38
2023-03-05T06:36:21.640Z,20.10
2023-03-05T06:37:24.004Z,20.75
2023-03-05T06:38:26.294Z,20.52
2023-03-05T06:39:30.198Z,20.50
2023-03-05T06:40:32.553Z,21.33
2023-03-05T06:41:34.961Z,21.15
2023-03-05T06:42:37.221Z,19.88
2023-03-05T06:43:41.809Z,19.98
2023-03-05T06:44:44.620Z,20.45
2023-03-05T06:45:48.466Z,20.02
2023-03-05T06:46:50.622Z,21.15
2023-03-05T06:47:53.086Z,20.55
2023-03-05T06:48:57.388Z,21.25
2023-03-05T06:49:59.591Z,21.60
2023-03-05T06:51:01.844Z,21.35
2023-03-05T06:52:05.710Z,21.20
2023-03-05T06:53:08.359Z,20.35
2023-03-05T06:54:15.556Z,21.00
2023-03-05T06:55:18.708Z,20.80
2023-03-05T06:56:21.857Z,21.58
2023-03-05T06:57:24.143Z,20.70
2023-03-05T06:58:26.382Z,20.80
2023-03-05T06:59:28.658Z,20.60
2023-03-05T07:00:31.083Z,20.85
2023-03-05T07:01:33.830Z,21.10
2023-03-05T07:02:40.562Z,21.23
2023-03-05T07:03:43.639Z,21.75
2023-03-05T07:04:46.866Z,22.27
2023-03-05T07:05:49.131Z,22.75
2023-03-05T07:06:51.427Z,22.27
2023-03-05T07:07:53.681Z,21.10
2023-03-05T07:08:57.085Z,22.55
2023-03-05T07:09:59.598Z,22.17
2023-03-05T07:11:02.038Z,21.70
2023-03-05T07:12:04.533Z,20.60
2023-03-05T07:13:07.341Z,21.23
2023-03-05T07:14:09.811Z,21.63
2023-03-05T07:15:12.650Z,21.08
2023-03-05T07:16:17.762Z,21.58
2023-03-05T07:17:20.051Z,23.35
2023-03-05T07:18:22.259Z,21.33
2023-03-05T07:19:24.489Z,21.90
2023-03-05T07:20:26.731Z,20.55
2023-03-05T07:21:31.676Z,20.23
2023-03-05T07:22:33.910Z,20.92
2023-03-05T07:23:36.725Z,21.17
2023-03-05T07:24:39.008Z,21.67
2023-03-05T07:25:41.478Z,21.00
2023-03-05T07:26:43.879Z,20.83
2023-03-05T07:27:46.111Z,21.55
2023-03-05T07:28:48.638Z,19.67
2023-03-05T07:29:51.154Z,19.58
2023-03-05T07:30:58.161Z,20.35
2023-03-05T07:32:00.439Z,20.25
2023-03-05T07:33:02.772Z,21.15
2023-03-05T07:34:06.419Z,19.25
2023-03-05T07:35:09.432Z,22.00
2023-03-05T07:36:12.656Z,21.33
2023-03-05T07:37:15.318Z,20.63
2023-03-05T07:38:17.748Z,21.23
2023-03-05T07:39:20.113Z,19.98
2023-03-05T07:40:22.461Z,20.65
2023-03-05T07:41:24.791Z,21.23
2023-03-05T07:42:27.077Z,20.60
2023-03-05T07:43:45.810Z,19.65
2023-03-05T07:44:48.189Z,20.42
2023-03-05T07:45:50.410Z,21.38
2023-03-05T07:46:52.630Z,19.52
2023-03-05T07:47:56.124Z,20.30
2023-03-05T07:48:58.846Z,20.90
2023-03-05T07:50:01.550Z,20.52
2023-03-05T07:51:06.173Z,19.90
2023-03-05T07:52:09.482Z,20.15
2023-03-05T07:53:12.056Z,19.60
2023-03-05T07:54:14.312Z,20.75
2023-03-05T07:55:16.653Z,19.98
2023-03-05T07:56:31.885Z,21.13
2023-03-05T07:57:35.423Z,21.90
2023-03-05T07:58:37.777Z,20.25
2023-03-05T07:59:40.202Z,21.00
2023-03-05T08:00:42.457Z,20.70
2023-03-05T08:01:46.255Z,20.55
2023-03-05T08:02:50.101Z,21.38
2023-03-05T08:03:52.419Z,20.50
2023-03-05T08:04:54.920Z,20.83
2023-03-05T08:05:57.143Z,19.98
2023-03-05T08:07:00.048Z,21.30
2023-03-05T08:08:02.324Z,20.92
2023-03-05T08:09:04.534Z,20.50
2023-03-05T08:10:07.533Z,20.02
2023-03-05T08:11:11.990Z,19.73
2023-03-05T08:12:14.201Z,20.48
2023-03-05T08:13:16.565Z,19.80
2023-03-05T08:14:18.854Z,20.27
2023-03-05T08:15:21.122Z,20.52
2023-03-05T08:16:25.899Z,21.23
2023-03-05T08:17:28.120Z,20.98
2023-03-05T08:18:30.501Z,20.20
2023-03-05T08:19:33.367Z,20.25
2023-03-05T08:20:36.498Z,20.10
2023-03-05T08:21:38.894Z,21.92
2023-03-05T08:22:41.102Z,19.73
2023-03-05T08:23:44.048Z,20.85
2023-03-05T08:24:46.392Z,19.90
2023-03-05T08:25:48.706Z,20.80
2023-03-05T08:26:50.957Z,19.83
2023-03-05T08:27:53.128Z,20.63
2023-03-05T08:28:55.608Z,20.77
2023-03-05T08:29:57.888Z,20.08
2023-03-05T08:31:00.202Z,20.77
2023-03-05T08:32:02.571Z,20.35
2023-03-05T08:33:04.898Z,20.40
2023-03-05T08:34:07.481Z,20.33
2023-03-05T08:35:09.921Z,20.83
2023-03-05T08:36:13.308Z,20.98
2023-03-05T08:37:16.162Z,20.08
2023-03-05T08:38:20.943Z,19.90
2023-03-05T08:39:23.366Z,19.80
2023-03-05T08:40:26.158Z,21.13
2023-03-05T08:41:28.491Z,19.33
2023-03-05T08:42:30.781Z,20.85
2023-03-05T08:43:33.323Z,20.38
2023-03-05T08:44:35.750Z,19.45
2023-03-05T08:45:39.961Z,21.23
2023-03-05T08:46:42.311Z,20.63
2023-03-05T08:47:44.798Z,20.73
2023-03-05T08:48:47.043Z,22.20
2023-03-05T08:49:49.388Z,20.67
2023-03-05T08:50:51.931Z,22.65
2023-03-05T08:51:54.216Z,21.13
2023-03-05T08:52:57.056Z,22.02
2023-03-05T08:54:00.233Z,20.80
2023-03-05T08:55:02.839Z,21.67
2023-03-05T08:56:05.549Z,19.83
2023-03-05T08:57:08.395Z,21.48
2023-03-05T08:58:10.599Z,21.65
2023-03-05T08:59:13.776Z,21.25
2023-03-05T09:00:17.091Z,21.33
2023-03-05T09:01:19.606Z,21.92
2023-03-05T09:02:21.933Z,21.25
2023-03-05T09:03:24.284Z,21.15
2023-03-05T09:04:26.731Z,22.10
2023-03-05T09:05:29.190Z,21.55
2023-03-05T09:06:31.504Z,21.20
2023-03-05T09:07:33.724Z,21.92
2023-03-05T09:08:36.233Z,22.23
2023-03-05T09:09:38.482Z,21.88
2023-03-05T09:10:44.806Z,20.85
2023-03-05T09:11:47.550Z,21.67
2023-03-05T09:12:49.879Z,21.15
2023-03-05T09:13:53.531Z,22.88
2023-03-05T09:14:56.388Z,21.58
2023-03-05T09:16:01.990Z,21.52
2023-03-05T09:17:04.243Z,22.70
2023-03-05T09:18:08.933Z,21.38
2023-03-05T09:19:12.760Z,22.08
2023-03-05T09:20:16.829Z,20.55
2023-03-05T09:21:19.206Z,21.35
2023-03-05T09:22:21.502Z,20.10
2023-03-05T09:23:25.088Z,20.85
2023-03-05T09:24:27.871Z,20.88
2023-03-05T09:25:30.140Z,21.83
2023-03-05T09:26:32.655Z,20.33
2023-03-05T09:27:36.385Z,21.60
2023-03-05T09:28:39.610Z,21.38
2023-03-05T09:29:43.248Z,21.73
2023-03-05T09:30:45.902Z,21.20
2023-03-05T09:31:51.537Z,21.40
2023-03-05T09:32:53.861Z,22.45
2023-03-05T09:33:56.141Z,21.67
2023-03-05T09:34:58.986Z,21.65
2023-03-05T09:36:02.032Z,21.17
2023-03-05T09:37:04.367Z,21.10
2023-03-05T09:38:06.685Z,21.00
2023-03-05T09:39:08.933Z,20.45
2023-03-05T09:40:21.699Z,20.88
2023-03-05T09:41:45.501Z,21.00
2023-03-05T09:43:03.518Z,20.35
2023-03-05T09:44:36.029Z,20.02
2023-03-05T09:45:41.438Z,20.13
2023-03-05T09:47:09.933Z,18.33
2023-03-05T09:48:21.355Z,18.40
2023-03-05T09:49:59.989Z,16.83
2023-03-05T09:51:04.285Z,18.05
2023-03-05T09:52:22.150Z,18.63
2023-03-05T09:53:42.798Z,18.23
2023-03-05T09:54:49.587Z,17.02
2023-03-05T09:55:58.187Z,16.65
2023-03-05T09:57:04.374Z,17.38
2023-03-05T09:58:34.159Z,17.02
2023-03-05T09:59:56.090Z,15.95
2023-03-05T10:01:02.498Z,15.43
2023-03-05T10:02:23.179Z,16.70
2023-03-05T10:03:30.536Z,14.35
2023-03-05T10:05:17.016Z,14.95
2023-03-05T10:06:29.082Z,15.70
2023-03-05T10:07:36.349Z,13.80
2023-03-05T10:08:48.620Z,13.25
2023-03-05T10:09:56.996Z,13.82
2023-03-05T10:11:07.430Z,14.77
2023-03-05T10:12:20.859Z,14.02
2023-03-05T10:13:36.910Z,14.13
2023-03-05T10:14:40.760Z,14.35
2023-03-05T10:15:53.717Z,13.98
2023-03-05T10:17:25.428Z,14.50
2023-03-05T10:18:37.167Z,15.10
2023-03-05T10:20:07.214Z,13.90
2023-03-05T10:21:31.216Z,14.00
2023-03-05T10:22:55.499Z,12.73
2023-03-05T10:24:13.412Z,13.20
2023-03-05T10:25:33.915Z,12.70
2023-03-05T10:26:52.368Z,13.60
2023-03-05T10:28:07.779Z,13.75
2023-03-05T10:29:39.371Z,14.30
2023-03-05T10:30:58.090Z,14.68
2023-03-05T10:32:29.382Z,14.45
2023-03-05T10:33:54.729Z,14.85
2023-03-05T10:35:12.098Z,15.68
2023-03-05T10:36:25.955Z,15.23
2023-03-05T10:37:56.439Z,15.77
2023-03-05T10:39:29.423Z,14.35
2023-03-05T10:40:54.497Z,14.60
2023-03-05T10:42:31.033Z,13.93
2023-03-05T10:43:42.040Z,14.75
2023-03-05T10:44:54.936Z,14.50
2023-03-05T10:45:58.225Z,14.50
2023-03-05T10:47:02.836Z,14.77
2023-03-05T10:48:14.278Z,14.10
2023-03-05T10:49:24.660Z,14.20
2023-03-05T10:50:33.662Z,14.82
2023-03-05T10:51:47.585Z,14.35
2023-03-05T10:53:02.240Z,14.60
2023-03-05T10:54:29.548Z,14.60
2023-03-05T10:55:32.205Z,14.25
2023-03-05T10:56:34.517Z,15.18
2023-03-05T10:57:36.746Z,14.77
2023-03-05T10:58:38.923Z,14.60
2023-03-05T11:00:06.853Z,15.20
2023-03-05T11:01:12.270Z,14.98
2023-03-05T11:02:14.896Z,15.57
2023-03-05T11:03:17.174Z,16.15
2023-03-05T11:04:32.128Z,15.48
2023-03-05T11:05:50.958Z,15.90
2023-03-05T11:06:53.267Z,15.68
2023-03-05T11:07:55.487Z,16.92
2023-03-05T11:09:18.093Z,15.50
2023-03-05T11:10:21.554Z,15.30
2023-03-05T11:11:23.898Z,14.52
2023-03-05T11:12:37.221Z,15.68
2023-03-05T11:14:00.887Z,13.38
2023-03-05T11:15:14.917Z,14.07
2023-03-05T11:16:21.705Z,12.98
2023-03-05T11:17:24.193Z,13.52
2023-03-05T11:18:26.694Z,13.05
2023-03-05T11:19:32.971Z,12.82
2023-03-05T11:20:36.319Z,13.45
2023-03-05T11:21:38.579Z,13.02
2023-03-05T11:22:40.972Z,13.18
2023-03-05T11:23:43.517Z,12.88
2023-03-05T11:25:06.216Z,12.05
2023-03-05T11:26:14.096Z,12.07
2023-03-05T11:27:35.924Z,11.90
2023-03-05T11:28:41.130Z,12.30
2023-03-05T11:29:49.347Z,12.07
2023-03-05T11:31:07.344Z,13.77
2023-03-05T11:32:21.232Z,11.65
2023-03-05T11:33:24.462Z,12.10
2023-03-05T11:34:35.099Z,13.10
2023-03-05T11:35:41.977Z,12.15
2023-03-05T11:37:03.736Z,12.77
2023-03-05T11:38:26.019Z,12.32
2023-03-05T11:39:30.366Z,12.38
2023-03-05T11:40:37.293Z,13.05
2023-03-05T11:42:04.362Z,13.15
2023-03-05T11:43:06.523Z,12.05
2023-03-05T11:44:20.770Z,11.80
2023-03-05T11:45:25.801Z,12.30
2023-03-05T11:46:28.704Z,12.82
2023-03-05T11:47:47.729Z,13.18
2023-03-05T11:48:50.418Z,12.65
2023-03-05T11:50:00.271Z,12.20
2023-03-05T11:51:13.621Z,12.40
2023-03-05T11:52:22.813Z,12.48
2023-03-05T11:53:36.799Z,12.00
2023-03-05T11:55:23.983Z,11.70
2023-03-05T11:56:36.797Z,11.70
2023-03-05T11:58:07.786Z,12.75
2023-03-05T11:59:26.817Z,11.98
2023-03-05T12:00:31.673Z,11.65
2023-03-05T12:01:43.331Z,11.02
2023-03-05T12:02:52.224Z,10.70
2023-03-05T12:03:55.522Z,11.13
2023-03-05T12:04:59.931Z,11.95
2023-03-05T12:06:13.998Z,12.40
2023-03-05T12:07:41.817Z,10.65
2023-03-05T12:08:51.147Z,11.35
2023-03-05T12:09:54.178Z,10.93
2023-03-05T12:10:59.286Z,10.60
2023-03-05T12:12:06.348Z,13.38
2023-03-05T12:13:15.317Z,10.85
2023-03-05T12:14:28.742Z,10.85
2023-03-05T12:16:01.072Z,10.00
2023-03-05T12:17:42.261Z,10.38
2023-03-05T12:19:07.017Z,9.63
2023-03-05T12:20:22.551Z,9.55
2023-03-05T12:21:38.255Z,9.73
2023-03-05T12:22:42.040Z,10.27
2023-03-05T12:24:01.729Z,9.32
2023-03-05T12:25:34.932Z,9.85
2023-03-05T12:27:04.571Z,9.52
2023-03-05T12:28:15.091Z,9.73
2023-03-05T12:29:43.869Z,9.80
2023-03-05T12:30:46.056Z,10.20
2023-03-05T12:31:48.966Z,9.55
2023-03-05T12:32:52.688Z,9.93
2023-03-05T12:33:54.943Z,9.95
2023-03-05T12:35:24.572Z,9.88
2023-03-05T12:36:34.793Z,9.60
2023-03-05T12:37:51.965Z,9.10
2023-03-05T12:38:57.465Z,9.55
2023-03-05T12:40:07.943Z,9.23
2023-03-05T12:41:22.154Z,9.20
2023-03-05T12:42:30.393Z,9.18
2023-03-05T12:43:33.972Z,9.25
2023-03-05T12:44:36.196Z,10.02
2023-03-05T12:45:40.908Z,10.07
2023-03-05T12:46:44.784Z,10.23
2023-03-05T12:47:53.719Z,10.38
2023-03-05T12:48:55.996Z,10.07
2023-03-05T12:50:00.981Z,10.80
2023-03-05T12:51:03.832Z,12.10
2023-03-05T12:52:23.686Z,10.25
2023-03-05T12:53:25.903Z,10.80
2023-03-05T12:54:28.683Z,11.18
2023-03-05T12:55:39.835Z,10.55
2023-03-05T12:56:46.404Z,9.80
2023-03-05T12:57:56.406Z,10.77
2023-03-05T12:59:01.663Z,10.50
2023-03-05T13:00:14.304Z,10.73
2023-03-05T13:01:36.030Z,10.43
2023-03-05T13:02:44.529Z,10.15
2023-03-05T13:04:10.527Z,9.98
2023-03-05T13:05:25.193Z,9.02
2023-03-05T13:06:32.488Z,9.80
2023-03-05T13:07:35.102Z,9.77
2023-03-05T13:08:37.840Z,9.10
2023-03-05T13:09:40.350Z,9.40
2023-03-05T13:10:43.590Z,9.82
2023-03-05T13:11:50.082Z,10.05
2023-03-05T13:12:54.434Z,9.93
2023-03-05T13:13:57.706Z,9.98
2023-03-05T13:15:05.701Z,9.70
2023-03-05T13:16:18.820Z,9.77
2023-03-05T13:17:32.506Z,9.70
2023-03-05T13:18:35.159Z,8.65
2023-03-05T13:19:41.591Z,9.55
2023-03-05T13:20:44.406Z,9.30
2023-03-05T13:21:59.840Z,9.43
2023-03-05T13:23:21.073Z,8.70
2023-03-05T13:24:23.686Z,8.77
2023-03-05T13:25:26.050Z,8.93
2023-03-05T13:26:38.313Z,8.48
2023-03-05T13:27:42.683Z,9.43
2023-03-05T13:29:28.107Z,8.55
2023-03-05T13:30:30.909Z,8.82
2023-03-05T13:31:36.171Z,9.60
2023-03-05T13:32:38.573Z,8.77
2023-03-05T13:33:41.096Z,9.02
2023-03-05T13:34:48.159Z,8.80
2023-03-05T13:35:52.366Z,9.25
2023-03-05T13:37:18.663Z,9.07
2023-03-05T13:38:45.075Z,9.20
2023-03-05T13:39:55.263Z,9.30
2023-03-05T13:41:04.191Z,9.60
2023-03-05T13:42:19.109Z,9.00
2023-03-05T13:43:21.415Z,8.93
2023-03-05T13:44:23.619Z,9.07
2023-03-05T13:45:28.813Z,10.00
2023-03-05T13:46:39.339Z,8.45
2023-03-05T13:47:58.338Z,9.50
2023-03-05T13:49:38.954Z,10.13
2023-03-05T13:50:41.369Z,10.30
2023-03-05T13:51:45.550Z,10.43
2023-03-05T13:52:47.747Z,10.38
2023-03-05T13:53:50.737Z,10.07
2023-03-05T13:54:53.120Z,10.05
2023-03-05T13:56:01.385Z,9.65
2023-03-05T13:57:08.546Z,9.40
2023-03-05T13:58:41.807Z,8.82
2023-03-05T13:59:52.343Z,10.00
2023-03-05T14:01:12.677Z,9.05
2023-03-05T14:02:19.864Z,9.90
2023-03-05T14:03:28.194Z,10.40
2023-03-05T14:04:41.209Z,11.02
2023-03-05T14:05:45.257Z,11.60
2023-03-05T14:07:03.585Z,11.43
2023-03-05T14:08:05.896Z,12.18
2023-03-05T14:09:20.369Z,11.85
2023-03-05T14:10:37.414Z,13.65
2023-03-05T14:11:39.612Z,11.77
2023-03-05T14:12:43.550Z,11.70